createdAt,value
2017-06-30T09:47:38.710Z,75.30
2017-06-30T09:50:07.607Z,73.60
2017-06-30T09:55:54.300Z,83.90
2017-06-30T09:58:22.065Z,81.90
2017-06-30T10:00:49.830Z,82.30
2017-06-30T10:03:17.659Z,83.20
2017-06-30T10:05:45.727Z,84.60
2017-06-30T10:08:14.317Z,84.30
2017-06-30T10:10:42.343Z,84.60
2017-06-30T10:13:10.163Z,82.50
2017-06-30T10:15:38.118Z,82.30
2017-06-30T10:18:06.161Z,82.90
2017-06-30T10:20:33.939Z,78.90
2017-06-30T10:23:01.783Z,80.80
2017-06-30T10:25:29.569Z,81.00
2017-06-30T10:27:57.388Z,82.80
2017-06-30T10:30:25.272Z,85.20
2017-06-30T10:32:53.383Z,83.30
2017-06-30T10:35:21.355Z,85.10
2017-06-30T10:37:49.490Z,84.20
2017-06-30T10:40:17.251Z,83.70
2017-06-30T10:42:45.043Z,80.10
2017-06-30T10:45:13.111Z,80.90
2017-06-30T10:47:40.889Z,79.10
2017-06-30T10:50:08.637Z,79.30
2017-06-30T10:52:36.421Z,79.50
2017-06-30T10:55:04.218Z,82.40
2017-06-30T10:57:31.985Z,85.50
2017-06-30T10:59:59.790Z,88.30
2017-06-30T11:02:27.598Z,90.90
2017-06-30T11:04:55.357Z,90.60
2017-06-30T11:07:23.887Z,90.40
2017-06-30T11:09:53.028Z,90.60
2017-06-30T11:12:20.844Z,90.30
2017-06-30T11:14:48.607Z,90.60
2017-06-30T11:17:16.370Z,91.40
2017-06-30T11:19:44.264Z,91.70
2017-06-30T11:22:12.020Z,90.60
2017-06-30T11:24:39.789Z,90.20
2017-06-30T11:27:07.593Z,89.60
2017-06-30T11:29:36.123Z,84.90
2017-06-30T11:32:03.927Z,84.90
2017-06-30T11:34:31.671Z,85.50
2017-06-30T11:36:59.469Z,83.00
2017-06-30T11:39:27.419Z,80.10
2017-06-30T11:41:55.179Z,79.10
2017-06-30T11:44:23.021Z,77.40
2017-06-30T11:46:50.845Z,79.40
2017-06-30T11:49:18.616Z,78.40
2017-06-30T11:51:46.458Z,77.90
2017-06-30T11:54:14.698Z,78.00
2017-06-30T11:56:42.582Z,77.70
2017-06-30T11:59:10.416Z,78.80
2017-06-30T12:01:39.216Z,79.70
2017-06-30T12:04:06.980Z,81.40
2017-06-30T12:06:34.788Z,82.50
2017-06-30T12:09:02.627Z,88.00
2017-06-30T12:11:30.407Z,89.60
2017-06-30T12:13:58.192Z,90.30
2017-06-30T12:16:25.997Z,91.30
2017-06-30T12:18:53.783Z,92.40
2017-06-30T12:21:21.706Z,91.90
2017-06-30T12:23:49.479Z,91.40
2017-06-30T12:26:17.303Z,91.20
2017-06-30T12:28:45.268Z,90.80
2017-06-30T12:31:16.233Z,89.00
2017-06-30T12:33:44.048Z,88.10
2017-06-30T12:36:11.992Z,84.10
2017-06-30T12:38:39.776Z,84.80
2017-06-30T12:41:07.559Z,81.30
2017-06-30T12:43:36.210Z,79.60
2017-06-30T12:46:04.008Z,78.00
2017-06-30T12:48:31.807Z,75.10
2017-06-30T12:51:00.485Z,70.70
2017-06-30T12:53:28.235Z,70.70
2017-06-30T12:55:55.991Z,72.50
2017-06-30T12:58:23.792Z,72.10
2017-06-30T13:00:51.560Z,71.60
2017-06-30T13:03:19.467Z,74.70
2017-06-30T13:05:47.283Z,74.20
2017-06-30T13:08:15.056Z,73.60
2017-06-30T13:10:42.888Z,74.40
2017-06-30T13:13:11.113Z,75.30
2017-06-30T13:15:38.940Z,75.70
2017-06-30T13:18:06.724Z,76.20
2017-06-30T13:20:34.518Z,75.90
2017-06-30T13:23:03.484Z,75.30
2017-06-30T13:25:31.284Z,75.30
2017-06-30T13:27:59.054Z,75.80
2017-06-30T13:30:26.884Z,77.00
2017-06-30T13:32:54.773Z,76.40
2017-06-30T13:35:22.574Z,74.80
2017-06-30T13:37:50.377Z,73.10
2017-06-30T13:40:18.234Z,69.80
2017-06-30T13:42:46.074Z,70.50
2017-06-30T13:45:13.925Z,69.00
2017-06-30T13:47:41.737Z,72.80
2017-06-30T13:50:09.503Z,72.00
2017-06-30T13:52:37.360Z,72.70
2017-06-30T13:55:05.134Z,74.80
2017-06-30T13:57:32.960Z,74.50
2017-06-30T14:00:00.735Z,76.20
2017-06-30T14:02:29.608Z,74.00
2017-06-30T14:04:57.484Z,75.10
2017-06-30T14:07:25.259Z,73.60
2017-06-30T14:09:53.037Z,72.90
2017-06-30T14:12:21.647Z,75.20
2017-06-30T14:14:49.499Z,75.20
2017-06-30T14:17:17.445Z,75.50
2017-06-30T14:19:45.271Z,76.60
2017-06-30T14:22:13.087Z,76.00
2017-06-30T14:24:40.874Z,77.70
2017-06-30T14:27:08.673Z,75.00
2017-06-30T14:29:36.482Z,74.60
2017-06-30T14:32:04.240Z,72.20
2017-06-30T14:34:32.025Z,72.70
2017-06-30T14:36:59.852Z,73.20
2017-06-30T14:39:27.743Z,75.20
2017-06-30T14:41:55.692Z,75.70
2017-06-30T14:44:23.529Z,77.00
2017-06-30T14:46:51.424Z,77.20
2017-06-30T14:49:19.232Z,77.20
2017-06-30T14:51:47.009Z,76.90
2017-06-30T14:54:14.921Z,78.50
2017-06-30T14:56:42.689Z,77.20
2017-06-30T14:59:10.474Z,77.80
2017-06-30T15:01:38.544Z,78.00
2017-06-30T15:04:06.365Z,76.50
2017-06-30T15:06:34.120Z,74.00
2017-06-30T15:09:01.973Z,73.10
2017-06-30T15:11:29.819Z,74.30
2017-06-30T15:13:57.632Z,74.80
2017-06-30T15:16:25.475Z,74.80
2017-06-30T15:18:53.325Z,75.90
2017-06-30T15:21:21.074Z,76.70
2017-06-30T15:23:48.938Z,77.00
2017-06-30T15:26:16.674Z,75.40
2017-06-30T15:28:44.539Z,76.70
2017-06-30T15:31:12.329Z,72.20
2017-06-30T15:33:40.858Z,72.00
2017-06-30T15:36:08.645Z,71.90
2017-06-30T15:38:36.458Z,67.30
2017-06-30T15:41:04.248Z,69.10
2017-06-30T15:43:32.820Z,66.80
2017-06-30T15:46:00.616Z,66.80
2017-06-30T15:48:28.451Z,65.10
2017-06-30T15:50:56.251Z,64.40
2017-06-30T15:53:24.046Z,66.30
2017-06-30T15:55:51.943Z,68.30
2017-06-30T15:58:19.711Z,66.40
2017-06-30T16:00:47.464Z,66.80
2017-06-30T16:03:15.303Z,67.80
2017-06-30T16:05:43.041Z,67.30
2017-06-30T16:08:10.922Z,69.00
2017-06-30T16:10:38.720Z,70.60
2017-06-30T16:13:06.470Z,70.60
2017-06-30T16:15:34.287Z,72.20
2017-06-30T16:18:04.267Z,75.10
2017-06-30T16:20:32.148Z,74.40
2017-06-30T16:22:59.899Z,71.70
2017-06-30T16:25:27.660Z,73.70
2017-06-30T16:27:55.553Z,74.80
2017-06-30T16:30:23.305Z,76.70
2017-06-30T16:32:51.491Z,75.60
2017-06-30T16:35:19.383Z,75.50
2017-06-30T16:37:47.131Z,72.10
2017-06-30T16:40:14.880Z,72.50
2017-06-30T16:42:42.701Z,73.70
2017-06-30T16:45:10.524Z,70.50
2017-06-30T16:47:38.279Z,69.80
2017-06-30T16:50:06.077Z,71.20
2017-06-30T16:52:33.966Z,71.40
2017-06-30T16:55:03.065Z,73.30
2017-06-30T16:57:30.925Z,73.30
2017-06-30T16:59:58.675Z,72.70
2017-06-30T17:02:29.688Z,75.00
2017-06-30T17:04:57.639Z,75.30
2017-06-30T17:07:26.180Z,76.00
2017-06-30T17:09:53.965Z,76.40
2017-06-30T17:12:21.756Z,76.40
2017-06-30T17:14:49.519Z,76.80
2017-06-30T17:17:17.316Z,76.70
2017-06-30T17:19:45.076Z,77.60
2017-06-30T17:22:12.910Z,77.50
2017-06-30T17:24:41.422Z,77.90
2017-06-30T17:27:09.247Z,77.80
2017-06-30T17:29:38.498Z,78.60
2017-06-30T17:32:06.301Z,79.50
2017-06-30T17:34:34.077Z,79.00
2017-06-30T17:37:02.004Z,78.70
2017-06-30T17:39:29.819Z,78.70
2017-06-30T17:41:57.791Z,78.30
2017-06-30T17:44:25.628Z,78.20
2017-06-30T17:46:53.457Z,77.70
2017-06-30T17:49:21.333Z,78.60
2017-06-30T17:51:49.085Z,79.50
2017-06-30T17:54:17.549Z,79.80
2017-06-30T17:56:45.684Z,80.50
2017-06-30T17:59:13.444Z,80.80
2017-06-30T18:01:41.208Z,81.10
2017-06-30T18:04:12.054Z,79.60
2017-06-30T18:06:39.865Z,80.50
2017-06-30T18:09:16.264Z,81.10
2017-06-30T18:11:44.048Z,80.70
2017-06-30T18:14:11.864Z,82.30
2017-06-30T18:16:39.717Z,81.50
2017-06-30T18:19:07.487Z,81.10
2017-06-30T18:21:35.340Z,81.50
2017-06-30T18:24:04.322Z,81.00
2017-06-30T18:26:32.109Z,81.90
2017-06-30T18:29:00.624Z,82.70
2017-06-30T18:31:28.417Z,82.70
2017-06-30T18:33:56.205Z,81.80
2017-06-30T18:36:24.006Z,81.40
2017-06-30T18:38:51.757Z,82.00
2017-06-30T18:41:19.599Z,81.80
2017-06-30T18:43:47.423Z,82.20
2017-06-30T18:46:15.215Z,82.30
2017-06-30T18:48:43.299Z,82.70
2017-06-30T18:51:11.094Z,83.10
2017-06-30T18:53:38.839Z,83.00
2017-06-30T18:56:06.640Z,83.50
2017-06-30T18:58:34.436Z,83.40
2017-06-30T19:01:03.179Z,83.20
2017-06-30T19:03:30.940Z,84.80
2017-06-30T19:05:58.884Z,83.90
2017-06-30T19:08:26.639Z,85.10
2017-06-30T19:10:54.390Z,85.70
2017-06-30T19:13:24.998Z,85.70
2017-06-30T19:15:52.772Z,85.70
2017-06-30T19:18:20.580Z,86.30
2017-06-30T19:20:48.335Z,86.90
2017-06-30T19:23:16.141Z,87.40
2017-06-30T19:25:43.949Z,88.10
2017-06-30T19:28:11.766Z,88.10
2017-06-30T19:30:39.520Z,88.00
2017-06-30T19:33:07.311Z,89.00
2017-06-30T19:35:35.775Z,88.90
2017-06-30T19:38:03.580Z,89.40
2017-06-30T19:40:31.382Z,90.00
2017-06-30T19:42:59.178Z,90.30
2017-06-30T19:45:26.947Z,90.20
2017-06-30T19:47:54.822Z,90.40
2017-06-30T19:50:22.593Z,90.60
2017-06-30T19:52:50.367Z,90.40
2017-06-30T19:55:18.188Z,90.20
2017-06-30T19:57:45.993Z,90.50
2017-06-30T20:00:13.834Z,90.70
2017-06-30T20:02:41.712Z,90.80
2017-06-30T20:05:10.633Z,90.80
2017-06-30T20:07:38.508Z,91.00
2017-06-30T20:10:08.138Z,91.30
2017-06-30T20:12:36.000Z,91.80
2017-06-30T20:15:03.755Z,91.60
2017-06-30T20:17:31.494Z,91.60
2017-06-30T20:19:59.633Z,92.00
2017-06-30T20:22:27.441Z,92.30
2017-06-30T20:25:00.177Z,92.30
2017-06-30T20:27:40.958Z,92.10
2017-06-30T20:30:13.529Z,92.40
2017-06-30T20:32:43.377Z,92.50
2017-06-30T20:35:11.230Z,92.40
2017-06-30T20:37:38.985Z,92.20
2017-06-30T20:40:06.736Z,92.70
2017-06-30T20:42:34.583Z,92.60
2017-06-30T20:45:03.444Z,93.00
2017-06-30T20:47:31.866Z,93.20
2017-06-30T20:49:59.632Z,93.00
2017-06-30T20:52:27.451Z,93.10
2017-06-30T20:54:55.257Z,93.20
2017-06-30T20:57:23.119Z,93.20
2017-06-30T20:59:50.890Z,93.30
2017-06-30T21:02:18.748Z,93.00
2017-06-30T21:04:48.796Z,93.10
2017-06-30T21:07:16.581Z,93.10
2017-06-30T21:09:44.738Z,93.30
2017-06-30T21:12:13.176Z,93.20
2017-06-30T21:14:41.135Z,93.20
2017-06-30T21:17:09.078Z,93.60
2017-06-30T21:19:36.964Z,93.10
2017-06-30T21:22:04.712Z,93.00
2017-06-30T21:24:32.529Z,93.00
2017-06-30T21:27:00.287Z,92.80
2017-06-30T21:29:28.040Z,93.00
2017-06-30T21:31:55.875Z,92.90
2017-06-30T21:34:23.625Z,93.10
2017-06-30T21:36:51.444Z,92.90
2017-06-30T21:39:20.000Z,92.90
2017-06-30T21:41:48.110Z,92.80
2017-06-30T21:44:16.308Z,92.60
2017-06-30T21:46:44.270Z,92.90
2017-06-30T21:49:12.052Z,93.10
2017-06-30T21:51:39.815Z,92.90
2017-06-30T21:54:07.609Z,93.10
2017-06-30T21:56:35.418Z,93.00
2017-06-30T21:59:03.267Z,93.20
2017-06-30T22:01:31.032Z,93.10
2017-06-30T22:03:58.931Z,93.20
2017-06-30T22:06:29.402Z,92.80
2017-06-30T22:08:57.164Z,93.00
2017-06-30T22:11:24.937Z,93.10
2017-06-30T22:13:52.726Z,93.00
2017-06-30T22:16:20.519Z,92.90
2017-06-30T22:18:48.480Z,93.00
2017-06-30T22:21:16.225Z,93.20
2017-06-30T22:23:44.020Z,93.50
2017-06-30T22:26:11.936Z,93.60
2017-06-30T22:28:39.722Z,93.60
2017-06-30T22:31:07.568Z,93.60
2017-06-30T22:33:36.098Z,94.10
2017-06-30T22:36:05.323Z,94.00
2017-06-30T22:38:33.101Z,94.20
2017-06-30T22:41:02.355Z,94.30
2017-06-30T22:43:30.159Z,94.40
2017-06-30T22:45:57.980Z,94.40
2017-06-30T22:48:25.728Z,94.50
2017-06-30T22:50:53.488Z,94.70
2017-06-30T22:53:21.462Z,94.60
2017-06-30T22:55:49.215Z,94.60
2017-06-30T22:58:17.742Z,94.70
2017-06-30T23:00:45.547Z,94.70
2017-06-30T23:03:13.302Z,94.80
2017-06-30T23:05:41.057Z,94.60
2017-06-30T23:08:08.860Z,94.50
2017-06-30T23:10:36.667Z,94.40
2017-06-30T23:13:04.412Z,94.50
2017-06-30T23:15:32.171Z,94.50
2017-06-30T23:18:00.000Z,94.70
2017-06-30T23:20:27.805Z,94.70
2017-06-30T23:22:56.319Z,94.80
2017-06-30T23:25:24.069Z,94.70
2017-06-30T23:27:52.735Z,95.00
2017-06-30T23:30:20.504Z,95.00
2017-06-30T23:32:48.324Z,95.10
2017-06-30T23:35:16.885Z,95.50
2017-06-30T23:37:44.633Z,95.40
2017-06-30T23:40:12.427Z,95.70
2017-06-30T23:42:40.221Z,95.80
2017-06-30T23:45:07.981Z,96.00
2017-06-30T23:47:39.127Z,96.20
2017-06-30T23:50:06.988Z,96.40
2017-06-30T23:52:35.502Z,96.90
2017-06-30T23:55:04.022Z,96.60
2017-06-30T23:57:31.915Z,96.70
2017-06-30T23:59:59.712Z,96.60
